Wallace, Indiana
Current Conditions -  °F | °C
As of 5:15 AM on Sunday 23 Nov 2014 (Local Time) from KDNV Reporting Station
Overcast Overcast  
Wind Chill: 44°   Ceiling: 8000
Heat Index: 49°   Visibility: 10mi
Dew Point: 41°   Wind: 10mph
Humidity: 76%   Direction: 180°S
Pressure: 29.82"   Gusts: NA
Location:  39.99°N, 87.15°W
Report Text: KDNV 231015Z AUTO 18009KT 10SM OVC080 09/05 A2982 RMK AO2 T00930052
Loading
Personal Weather Stations






























Interactive Weather Map New forecast layout! Learn more

10-Day Weather Forecast

Advertisements
Track Severe Weather on mobile